createdAt,value
2018-04-17T00:00:18.235Z,27.9
2018-04-17T00:01:07.491Z,28
2018-04-17T00:01:58.412Z,27.9
2018-04-17T00:02:47.933Z,27.9
2018-04-17T00:03:37.525Z,27.9
2018-04-17T00:04:28.304Z,27.9
2018-04-17T00:05:18.360Z,27.9
2018-04-17T00:06:07.653Z,27.9
2018-04-17T00:06:57.470Z,27.9
2018-04-17T00:07:47.498Z,27.9
2018-04-17T00:08:37.554Z,27.9
2018-04-17T00:09:28.223Z,27.9
2018-04-17T00:10:18.520Z,27.9
2018-04-17T00:11:08.145Z,27.9
2018-04-17T00:11:58.655Z,27.9
2018-04-17T00:13:38.798Z,27.9
2018-04-17T00:19:29.236Z,27.8
2018-04-17T00:20:19.496Z,27.8
2018-04-17T00:21:09.868Z,27.8
2018-04-17T00:21:59.661Z,27.8
2018-04-17T00:22:49.240Z,27.8
2018-04-17T00:23:39.728Z,27.8
2018-04-17T00:24:29.795Z,27.8
2018-04-17T00:25:19.603Z,27.8
2018-04-17T00:26:10.225Z,27.7
2018-04-17T00:26:59.779Z,27.8
2018-04-17T00:27:49.488Z,27.8
2018-04-17T00:28:39.552Z,27.8
2018-04-17T00:29:29.959Z,27.8
2018-04-17T00:30:20.005Z,27.7
2018-04-17T00:31:09.707Z,27.7
2018-04-17T00:31:59.844Z,27.7
2018-04-17T00:32:50.432Z,27.7
2018-04-17T00:33:40.612Z,27.7
2018-04-17T00:34:30.587Z,27.6
2018-04-17T00:35:20.931Z,27.6
2018-04-17T00:36:10.467Z,27.7
2018-04-17T00:37:00.767Z,27.6
2018-04-17T00:37:50.851Z,27.6
2018-04-17T00:38:40.888Z,27.6
2018-04-17T00:39:30.377Z,27.6
2018-04-17T00:40:21.033Z,27.6
2018-04-17T00:41:11.093Z,27.6
2018-04-17T00:42:01.426Z,27.6
2018-04-17T00:42:50.620Z,27.6
2018-04-17T00:43:41.518Z,27.6
2018-04-17T00:44:31.330Z,27.6
2018-04-17T00:45:21.366Z,27.6
2018-04-17T00:46:11.486Z,27.6
2018-04-17T00:47:01.497Z,27.6
2018-04-17T00:47:51.577Z,27.6
2018-04-17T00:48:41.345Z,27.6
2018-04-17T00:49:31.991Z,27.6
2018-04-17T00:50:20.897Z,27.6
2018-04-17T00:51:11.547Z,27.6
2018-04-17T00:52:01.920Z,27.6
2018-04-17T00:52:51.453Z,27.6
2018-04-17T00:53:42.325Z,27.6
2018-04-17T00:54:31.224Z,27.6
2018-04-17T00:55:22.168Z,27.5
2018-04-17T00:56:12.497Z,27.5
2018-04-17T00:57:01.998Z,27.5
2018-04-17T00:57:51.781Z,27.5
2018-04-17T00:58:42.130Z,27.5
2018-04-17T00:59:32.458Z,27.5
2018-04-17T01:00:22.825Z,27.5
2018-04-17T01:01:12.854Z,27.5
2018-04-17T01:02:01.792Z,27.4
2018-04-17T01:02:52.980Z,27.5
2018-04-17T01:03:42.765Z,27.5
2018-04-17T01:04:32.267Z,27.4
2018-04-17T01:05:23.212Z,27.4
2018-04-17T01:06:13.232Z,27.4
2018-04-17T01:07:02.716Z,27.4
2018-04-17T01:07:52.792Z,27.4
2018-04-17T01:08:42.894Z,27.4
2018-04-17T01:09:32.933Z,27.4
2018-04-17T01:10:22.695Z,27.4
2018-04-17T01:11:13.626Z,27.4
2018-04-17T01:12:03.679Z,27.4
2018-04-17T01:12:53.713Z,27.4
2018-04-17T01:13:43.241Z,27.4
2018-04-17T01:14:33.925Z,27.4
2018-04-17T01:15:23.640Z,27.4
2018-04-17T01:16:13.472Z,27.4
2018-04-17T01:17:03.804Z,27.4
2018-04-17T01:17:53.262Z,27.4
2018-04-17T01:18:44.158Z,27.4
2018-04-17T01:19:33.968Z,27.4
2018-04-17T01:20:23.466Z,27.4
2018-04-17T01:21:13.837Z,27.4
2018-04-17T01:22:03.865Z,27.4
2018-04-17T01:22:54.208Z,27.4
2018-04-17T01:23:44.306Z,27.4
2018-04-17T01:24:34.371Z,27.4
2018-04-17T01:25:24.420Z,27.4
2018-04-17T01:26:14.520Z,27.4
2018-04-17T01:27:04.534Z,27.4
2018-04-17T01:27:54.873Z,27.4
2018-04-17T01:28:44.429Z,27.4
2018-04-17T01:29:34.738Z,27.4
2018-04-17T01:30:24.778Z,27.4
2018-04-17T01:31:13.996Z,27.4
2018-04-17T01:32:05.184Z,27.4
2018-04-17T01:32:55.004Z,27.3
2018-04-17T01:33:45.327Z,27.3
2018-04-17T01:34:35.343Z,27.3
2018-04-17T01:35:24.884Z,27.3
2018-04-17T01:36:15.228Z,27.3
2018-04-17T01:37:04.704Z,27.3
2018-04-17T01:37:54.522Z,27.3
2018-04-17T01:38:45.160Z,27.3
2018-04-17T01:39:35.484Z,27.3
2018-04-17T01:40:25.525Z,27.3
2018-04-17T01:41:15.284Z,27.3
2018-04-17T01:42:05.092Z,27.3
2018-04-17T01:42:55.736Z,27.3
2018-04-17T01:43:45.902Z,27.3
2018-04-17T01:44:36.097Z,27.3
2018-04-17T01:45:25.909Z,27.3
2018-04-17T01:46:15.401Z,27.3
2018-04-17T01:47:05.461Z,27.3
2018-04-17T01:47:56.110Z,27.3
2018-04-17T01:48:46.172Z,27.3
2018-04-17T01:49:35.964Z,27.3
2018-04-17T01:50:26.016Z,27.3
2018-04-17T01:51:16.046Z,27.3
2018-04-17T01:52:06.397Z,27.3
2018-04-17T01:52:56.199Z,27.3
2018-04-17T01:53:46.575Z,27.3
2018-04-17T01:54:36.602Z,27.3
2018-04-17T01:55:26.644Z,27.3
2018-04-17T01:56:17.567Z,27.3
2018-04-17T01:57:06.778Z,27.3
2018-04-17T01:57:56.858Z,27.3
2018-04-17T01:58:46.086Z,27.3
2018-04-17T01:59:36.139Z,27.3
2018-04-17T02:00:27.059Z,27.3
2018-04-17T02:01:16.815Z,27.3
2018-04-17T02:02:07.149Z,27.2
2018-04-17T02:02:57.499Z,27.3
2018-04-17T02:03:47.610Z,27.3
2018-04-17T02:04:37.424Z,27.3
2018-04-17T02:05:27.707Z,27.3
2018-04-17T02:06:16.929Z,27.4
2018-04-17T02:07:06.988Z,27.4
2018-04-17T02:07:57.040Z,27.6
2018-04-17T02:08:46.778Z,27.7
2018-04-17T02:10:27.259Z,27.9
2018-04-17T02:11:18.111Z,28
2018-04-17T02:12:08.244Z,28.2
2018-04-17T02:12:58.291Z,28.3
2018-04-17T02:13:48.034Z,28.4
2018-04-17T02:14:37.565Z,28.6
2018-04-17T02:15:28.177Z,28.8
2018-04-17T02:16:18.218Z,28.9
2018-04-17T02:17:08.022Z,29.1
2018-04-17T02:17:58.644Z,29.3
2018-04-17T02:18:48.482Z,29.4
2018-04-17T02:19:38.500Z,29.6
2018-04-17T02:20:27.974Z,29.8
2018-04-17T02:21:18.605Z,29.9
2018-04-17T02:22:08.480Z,30.1
2018-04-17T02:22:58.730Z,30.3
2018-04-17T02:23:48.529Z,30.5
2018-04-17T02:24:39.131Z,30.6
2018-04-17T02:25:28.634Z,30.8
2018-04-17T02:26:18.997Z,31
2018-04-17T02:27:08.485Z,31.2
2018-04-17T02:27:59.399Z,31.3
2018-04-17T02:28:49.184Z,31.5
2018-04-17T02:29:39.212Z,31.6
2018-04-17T02:30:29.343Z,31.8
2018-04-17T02:31:19.100Z,31.9
2018-04-17T02:32:09.185Z,32.1
2018-04-17T02:32:59.233Z,32.2
2018-04-17T02:33:49.380Z,32.3
2018-04-17T02:34:39.336Z,32.4
2018-04-17T02:35:29.977Z,32.5
2018-04-17T02:36:20.047Z,32.6
2018-04-17T02:37:09.557Z,32.8
2018-04-17T02:37:59.883Z,32.8
2018-04-17T02:38:50.200Z,32.9
2018-04-17T02:39:39.768Z,33
2018-04-17T02:40:29.517Z,33.1
2018-04-17T02:41:20.129Z,33.2
2018-04-17T02:42:09.920Z,33.3
2018-04-17T02:43:00.554Z,33.3
2018-04-17T02:43:50.591Z,33.4
2018-04-17T02:44:40.209Z,33.5
2018-04-17T02:45:30.193Z,33.6
2018-04-17T02:46:20.825Z,33.6
2018-04-17T02:47:10.556Z,33.8
2018-04-17T02:47:59.856Z,33.8
2018-04-17T02:48:50.134Z,33.9
2018-04-17T02:49:40.456Z,33.9
2018-04-17T02:50:30.544Z,34.1
2018-04-17T02:51:21.177Z,34.1
2018-04-17T02:52:10.928Z,34.2
2018-04-17T02:53:00.700Z,34.3
2018-04-17T02:53:51.062Z,34.4
2018-04-17T02:54:41.431Z,34.4
2018-04-17T02:55:31.467Z,34.6
2018-04-17T02:56:20.415Z,34.6
2018-04-17T02:57:11.598Z,34.8
2018-04-17T02:58:01.120Z,34.8
2018-04-17T02:58:50.584Z,34.9
2018-04-17T02:59:40.724Z,35
2018-04-17T03:00:31.534Z,35.1
2018-04-17T03:01:21.627Z,35.2
2018-04-17T03:02:11.117Z,35.3
2018-04-17T03:03:01.288Z,35.3
2018-04-17T03:03:51.276Z,35.4
2018-04-17T03:04:41.673Z,35.5
2018-04-17T03:05:31.966Z,35.6
2018-04-17T03:06:21.425Z,35.6
2018-04-17T03:07:12.348Z,35.8
2018-04-17T03:08:01.594Z,35.9
2018-04-17T03:08:51.914Z,35.9
2018-04-17T03:09:41.985Z,36
2018-04-17T03:10:32.618Z,36.1
2018-04-17T03:11:22.409Z,36.2
2018-04-17T03:12:11.888Z,36.3
2018-04-17T03:13:02.496Z,36.3
2018-04-17T03:13:52.542Z,36.4
2018-04-17T03:14:42.401Z,36.5
2018-04-17T03:15:32.423Z,36.6
2018-04-17T03:16:22.746Z,36.7
2018-04-17T03:17:13.091Z,36.8
2018-04-17T03:18:03.168Z,36.9
2018-04-17T03:18:52.907Z,36.9
2018-04-17T03:19:43.047Z,37.1
2018-04-17T03:20:32.783Z,37.2
2018-04-17T03:21:23.387Z,37.2
2018-04-17T03:22:13.166Z,37.3
2018-04-17T03:23:03.510Z,37.3
2018-04-17T03:23:53.393Z,37.4
2018-04-17T03:24:43.695Z,37.4
2018-04-17T03:25:33.312Z,37.5
2018-04-17T03:26:23.192Z,37.6
2018-04-17T03:27:13.384Z,37.6
2018-04-17T03:28:03.387Z,37.6
2018-04-17T03:28:53.418Z,37.7
2018-04-17T03:29:43.220Z,37.7
2018-04-17T03:30:33.243Z,37.8
2018-04-17T03:31:23.883Z,37.8
2018-04-17T03:32:13.456Z,37.8
2018-04-17T03:33:03.779Z,37.9
2018-04-17T03:33:53.311Z,37.9
2018-04-17T03:34:43.861Z,37.9
2018-04-17T03:35:34.460Z,38
2018-04-17T03:36:24.549Z,38
2018-04-17T03:37:14.358Z,38.1
2018-04-17T03:38:04.639Z,38.1
2018-04-17T03:38:54.169Z,38.1
2018-04-17T03:39:44.525Z,38.1
2018-04-17T03:40:34.290Z,38.2
2018-04-17T03:41:33.062Z,38.2
2018-04-17T03:42:22.933Z,38.3
2018-04-17T03:43:12.904Z,38.3
2018-04-17T03:44:03.037Z,38.3
2018-04-17T03:44:53.423Z,38.3
2018-04-17T03:45:58.304Z,38.3
2018-04-17T03:46:33.263Z,38.4
2018-04-17T03:47:22.984Z,38.4
2018-04-17T03:48:13.528Z,38.4
2018-04-17T03:49:02.760Z,38.4
2018-04-17T03:49:53.769Z,38.4
2018-04-17T03:50:43.284Z,38.4
2018-04-17T03:51:33.304Z,38.5
2018-04-17T03:52:23.853Z,38.5
2018-04-17T03:53:13.744Z,38.6
2018-04-17T03:54:03.473Z,38.6
2018-04-17T03:54:53.573Z,38.6
2018-04-17T03:55:43.074Z,38.6
2018-04-17T03:56:34.211Z,38.6
2018-04-17T03:57:24.286Z,38.6
2018-04-17T03:58:13.623Z,38.6
2018-04-17T03:59:18.305Z,38.6
2018-04-17T03:59:54.035Z,38.6
2018-04-17T04:00:44.038Z,38.6
2018-04-17T04:01:34.165Z,38.6
2018-04-17T04:02:23.621Z,38.6
2018-04-17T04:03:14.237Z,38.6
2018-04-17T04:04:03.504Z,38.6
2018-04-17T04:04:54.627Z,38.6
2018-04-17T04:05:44.460Z,38.6
2018-04-17T04:06:34.803Z,38.6
2018-04-17T04:07:24.067Z,38.6
2018-04-17T04:08:15.133Z,38.6
2018-04-17T04:09:04.387Z,38.6
2018-04-17T04:09:54.484Z,38.6
2018-04-17T04:10:44.797Z,38.6
2018-04-17T04:11:34.875Z,38.6
2018-04-17T04:12:40.061Z,38.6
2018-04-17T04:13:14.929Z,38.6
2018-04-17T04:14:19.949Z,38.6
2018-04-17T04:14:55.133Z,38.6
2018-04-17T04:15:45.174Z,38.6
2018-04-17T04:16:50.329Z,38.6
2018-04-17T04:17:24.956Z,38.6
2018-04-17T04:18:16.031Z,38.6
2018-04-17T04:19:05.373Z,38.6
2018-04-17T04:19:55.985Z,38.6
2018-04-17T04:20:45.232Z,38.6
2018-04-17T04:21:35.311Z,38.6
2018-04-17T04:22:40.276Z,38.6
2018-04-17T04:23:15.394Z,38.6
2018-04-17T04:24:06.731Z,38.6
2018-04-17T04:24:56.104Z,38.6
2018-04-17T04:25:46.819Z,38.6
2018-04-17T04:26:35.928Z,38.6
2018-04-17T04:27:26.403Z,38.6
2018-04-17T04:28:16.506Z,38.6
2018-04-17T04:29:06.059Z,38.6
2018-04-17T04:29:56.223Z,38.6
2018-04-17T04:30:46.233Z,38.6
2018-04-17T04:31:36.359Z,38.6
2018-04-17T04:32:26.146Z,38.6
2018-04-17T04:33:16.489Z,38.6
2018-04-17T04:34:05.949Z,38.6
2018-04-17T04:34:56.691Z,38.6
2018-04-17T04:35:46.916Z,38.6
2018-04-17T04:36:51.612Z,38.6
2018-04-17T04:37:26.732Z,38.6
2018-04-17T04:38:17.337Z,38.6
2018-04-17T04:39:07.208Z,38.6
2018-04-17T04:39:56.923Z,38.6
2018-04-17T04:40:47.942Z,38.6
2018-04-17T04:41:37.390Z,38.6
2018-04-17T04:42:27.158Z,38.6
2018-04-17T04:43:17.326Z,38.6
2018-04-17T04:44:22.470Z,38.6
2018-04-17T04:44:57.927Z,38.6
2018-04-17T04:45:47.709Z,38.6
2018-04-17T04:46:37.931Z,38.6
2018-04-17T04:47:27.715Z,38.6
2018-04-17T04:48:18.137Z,38.6
2018-04-17T04:49:07.062Z,38.6
2018-04-17T04:49:58.279Z,38.6
2018-04-17T04:50:48.323Z,38.6
2018-04-17T04:51:37.833Z,38.6
2018-04-17T04:52:28.127Z,38.5
2018-04-17T04:53:18.450Z,38.5
2018-04-17T04:54:08.273Z,38.5
2018-04-17T04:54:58.237Z,38.5
2018-04-17T04:55:48.308Z,38.5
2018-04-17T04:56:38.775Z,38.5
2018-04-17T04:57:28.758Z,38.6
2018-04-17T04:58:33.277Z,38.6
2018-04-17T04:59:08.380Z,38.6
2018-04-17T04:59:58.454Z,38.6
2018-04-17T05:00:48.699Z,38.6
2018-04-17T05:01:39.144Z,38.6
2018-04-17T05:02:29.212Z,38.6
2018-04-17T05:03:18.707Z,38.6
2018-04-17T05:04:08.749Z,38.6
2018-04-17T05:05:13.887Z,38.7
2018-04-17T05:05:49.187Z,38.7
2018-04-17T05:06:39.501Z,38.7
2018-04-17T05:07:29.539Z,38.7
2018-04-17T05:08:19.617Z,38.7
2018-04-17T05:09:10.079Z,38.7
2018-04-17T05:10:49.575Z,38.6
2018-04-17T05:11:39.207Z,38.6
2018-04-17T05:12:29.613Z,38.6
2018-04-17T05:13:19.453Z,38.6
2018-04-17T05:14:09.767Z,38.6
2018-04-17T05:15:00.319Z,38.6
2018-04-17T05:15:49.919Z,38.6
2018-04-17T05:16:40.279Z,38.6
2018-04-17T05:17:45.014Z,38.6
2018-04-17T05:18:19.734Z,38.5
2018-04-17T05:19:10.650Z,38.5
2018-04-17T05:19:59.432Z,38.5
2018-04-17T05:20:50.609Z,38.5
2018-04-17T05:21:40.066Z,38.4
2018-04-17T05:22:30.395Z,38.4
2018-04-17T05:23:53.120Z,38.4
2018-04-17T05:24:10.249Z,38.4
2018-04-17T05:25:00.901Z,38.4
2018-04-17T05:25:50.651Z,38.4
2018-04-17T05:26:40.993Z,38.4
2018-04-17T05:27:29.936Z,38.4
2018-04-17T05:28:20.894Z,38.3
2018-04-17T05:29:10.596Z,38.3
2018-04-17T05:30:01.583Z,38.3
2018-04-17T05:30:51.321Z,38.3
2018-04-17T05:31:41.547Z,38.3
2018-04-17T05:32:30.881Z,38.3
2018-04-17T05:33:52.616Z,38.3
2018-04-17T05:34:11.299Z,38.2
2018-04-17T05:35:00.765Z,38.2
2018-04-17T05:35:51.418Z,38.2
2018-04-17T05:36:41.836Z,38.1
2018-04-17T05:37:31.483Z,38.1
2018-04-17T05:39:11.399Z,38.1
2018-04-17T05:40:02.039Z,38.1
2018-04-17T05:40:52.091Z,38
2018-04-17T05:41:41.403Z,38
2018-04-17T05:42:31.675Z,38
2018-04-17T05:43:22.468Z,38
2018-04-17T05:44:12.085Z,37.9
2018-04-17T05:45:02.413Z,37.9
2018-04-17T05:45:52.148Z,37.7
2018-04-17T05:46:42.190Z,37.6
2018-04-17T05:47:32.579Z,37.4
2018-04-17T05:48:22.683Z,37.1
2018-04-17T05:49:27.097Z,36.9
2018-04-17T05:50:02.495Z,36.6
2018-04-17T05:50:52.564Z,36.4
2018-04-17T05:51:43.387Z,36
2018-04-17T05:52:32.655Z,35.7
2018-04-17T05:53:23.102Z,35.4
2018-04-17T05:54:13.110Z,35.1
2018-04-17T05:55:03.427Z,34.8
2018-04-17T05:56:08.452Z,34.6
2018-04-17T05:56:43.250Z,34.3
2018-04-17T05:57:33.067Z,34.1
2018-04-17T05:58:23.397Z,33.9
2018-04-17T05:59:27.835Z,33.6
2018-04-17T06:00:17.630Z,33.3
2018-04-17T06:00:53.603Z,32.9
2018-04-17T06:01:43.067Z,32.8
2018-04-17T06:02:33.684Z,32.4
2018-04-17T06:03:23.799Z,32.3
2018-04-17T06:04:13.581Z,32
2018-04-17T06:05:03.665Z,31.8
2018-04-17T06:05:54.016Z,31.5
2018-04-17T06:06:43.466Z,31.3
2018-04-17T06:07:34.075Z,31.1
2018-04-17T06:08:22.754Z,30.9
2018-04-17T06:09:13.666Z,30.8
2018-04-17T06:10:03.962Z,30.4
2018-04-17T06:10:54.084Z,38.3
2018-04-17T06:11:44.454Z,40.5
2018-04-17T06:12:34.256Z,39.6
2018-04-17T06:13:24.263Z,39.9
2018-04-17T06:14:14.586Z,42.9
2018-04-17T06:15:04.371Z,44.6
2018-04-17T06:15:54.455Z,45.3
2018-04-17T06:17:33.975Z,43.4
2018-04-17T06:18:24.066Z,43.1
2018-04-17T06:19:14.679Z,42.3
2018-04-17T06:20:04.509Z,41.4
2018-04-17T06:20:54.675Z,40.8
2018-04-17T06:21:44.628Z,40.1
2018-04-17T06:22:34.955Z,39.5
2018-04-17T06:23:25.733Z,40
2018-04-17T06:24:15.311Z,44.4
2018-04-17T06:25:05.567Z,43.9
2018-04-17T06:25:54.601Z,41.7
2018-04-17T06:26:45.740Z,40
2018-04-17T06:27:35.312Z,43.3
2018-04-17T06:28:24.589Z,44.8
2018-04-17T06:29:15.082Z,43.7
2018-04-17T06:30:05.049Z,41.3
2018-04-17T06:31:45.065Z,44.6
2018-04-17T06:32:35.432Z,44.1
2018-04-17T06:33:25.432Z,42.6
2018-04-17T06:34:15.270Z,41.7
2018-04-17T06:35:05.635Z,44.5
2018-04-17T06:35:56.172Z,45.6
2018-04-17T06:36:45.721Z,46.4
2018-04-17T06:37:35.843Z,47
2018-04-17T06:38:40.994Z,47.3
2018-04-17T06:39:16.083Z,47.6
2018-04-17T06:40:06.038Z,47.7
2018-04-17T06:40:56.030Z,47.8
2018-04-17T06:41:46.451Z,47.8
2018-04-17T06:42:36.161Z,47.9
2018-04-17T06:43:26.672Z,47.9
2018-04-17T06:44:16.807Z,48
2018-04-17T06:45:05.827Z,48.1
2018-04-17T06:45:56.704Z,48.1
2018-04-17T06:46:46.764Z,48.3
2018-04-17T06:47:38.163Z,48.4
2018-04-17T06:48:41.491Z,48.4
2018-04-17T06:49:17.900Z,48.4
2018-04-17T06:50:07.042Z,48.4
2018-04-17T06:50:56.804Z,48.4
2018-04-17T06:51:47.181Z,48.4
2018-04-17T06:52:37.506Z,48.5
2018-04-17T06:53:27.290Z,48.4
2018-04-17T06:54:17.296Z,48.4
2018-04-17T06:55:07.459Z,48.5
2018-04-17T06:55:56.892Z,48.5
2018-04-17T06:56:47.820Z,48.6
2018-04-17T06:57:37.608Z,48.7
2018-04-17T06:58:26.590Z,48.9
2018-04-17T06:59:17.873Z,48.9
2018-04-17T07:00:08.060Z,49.1
2018-04-17T07:01:12.767Z,49.1
2018-04-17T07:02:02.867Z,49.1
2018-04-17T07:02:37.655Z,49.1
2018-04-17T07:03:28.139Z,49.2
2018-04-17T07:04:18.048Z,49.3
2018-04-17T07:05:08.356Z,49.3
2018-04-17T07:05:58.915Z,49.3
2018-04-17T07:06:48.277Z,49.4
2018-04-17T07:07:39.073Z,49.4
2018-04-17T07:08:27.725Z,49.6
2018-04-17T07:09:18.997Z,49.7
2018-04-17T07:10:08.732Z,49.8
2018-04-17T07:10:58.356Z,49.8
2018-04-17T07:11:48.256Z,49.8
2018-04-17T07:12:39.211Z,49.8
2018-04-17T07:13:28.207Z,49.9
2018-04-17T07:14:18.486Z,49.9
2018-04-17T07:15:09.132Z,49.9
2018-04-17T07:15:59.405Z,50
2018-04-17T07:16:49.267Z,50.1
2018-04-17T07:17:38.834Z,50.3
2018-04-17T07:18:29.176Z,50.4
2018-04-17T07:19:19.531Z,50.4
2018-04-17T07:20:09.301Z,50.4
2018-04-17T07:20:59.668Z,50.4
2018-04-17T07:22:03.776Z,50.4
2018-04-17T07:22:39.300Z,50.5
2018-04-17T07:23:29.043Z,50.5
2018-04-17T07:24:18.745Z,50.6
2018-04-17T07:25:09.748Z,50.6
2018-04-17T07:25:59.714Z,50.7
2018-04-17T07:26:48.474Z,50.8
2018-04-17T07:27:39.550Z,50.8
2018-04-17T07:28:29.690Z,50.8
2018-04-17T07:29:34.429Z,50.8
2018-04-17T07:30:09.223Z,50.8
2018-04-17T07:30:59.891Z,50.8
2018-04-17T07:31:49.892Z,50.8
2018-04-17T07:32:40.213Z,50.8
2018-04-17T07:33:30.373Z,51
2018-04-17T07:34:19.382Z,51.1
2018-04-17T07:35:10.707Z,51.3
2018-04-17T07:35:59.690Z,51.4
2018-04-17T07:36:50.553Z,51.4
2018-04-17T07:37:40.098Z,51.5
2018-04-17T07:38:30.778Z,51.6
2018-04-17T07:39:20.695Z,51.6
2018-04-17T07:40:10.793Z,51.6
2018-04-17T07:41:00.683Z,51.6
2018-04-17T07:41:51.215Z,51.7
2018-04-17T07:42:40.742Z,51.8
2018-04-17T07:43:46.253Z,51.8
2018-04-17T07:44:21.416Z,51.9
2018-04-17T07:45:25.245Z,52
2018-04-17T07:46:01.284Z,52.1
2018-04-17T07:46:51.537Z,52.3
2018-04-17T07:48:31.683Z,52.5
2018-04-17T07:49:36.467Z,52.6
2018-04-17T07:50:11.604Z,52.7
2018-04-17T07:51:01.927Z,52.8
2018-04-17T07:51:50.902Z,52.8
2018-04-17T07:52:42.077Z,52.9
2018-04-17T07:53:32.092Z,52.9
2018-04-17T07:54:21.889Z,52.9
2018-04-17T07:55:11.965Z,53
2018-04-17T07:56:02.644Z,53.1
2018-04-17T07:56:51.536Z,53.1
2018-04-17T07:57:42.233Z,53.1
2018-04-17T07:58:32.579Z,53.2
2018-04-17T07:59:22.186Z,53.3
2018-04-17T08:00:12.071Z,53.3
2018-04-17T08:01:02.424Z,53.3
2018-04-17T08:01:52.831Z,53.4
2018-04-17T08:02:42.481Z,53.4
2018-04-17T08:03:32.309Z,53.3
2018-04-17T08:04:22.616Z,53.4
2018-04-17T08:05:12.441Z,53.4
2018-04-17T08:06:03.085Z,53.5
2018-04-17T08:07:07.521Z,53.6
2018-04-17T08:07:43.228Z,53.7
2018-04-17T08:08:33.017Z,53.8
2018-04-17T08:09:22.215Z,53.9
2018-04-17T08:10:12.627Z,53.9
2018-04-17T08:11:02.918Z,54
2018-04-17T08:11:53.813Z,54.1
2018-04-17T08:12:42.701Z,54.1
2018-04-17T08:13:32.871Z,54.3
2018-04-17T08:14:22.959Z,54.4
2018-04-17T08:15:12.105Z,54.5
2018-04-17T08:16:03.852Z,54.6
2018-04-17T08:16:53.651Z,54.8
2018-04-17T08:17:44.215Z,54.9
2018-04-17T08:18:33.512Z,54.9
2018-04-17T08:19:23.964Z,55.1
2018-04-17T08:20:13.555Z,55.1
2018-04-17T08:21:03.900Z,55.3
2018-04-17T08:21:53.524Z,55.3
2018-04-17T08:22:44.087Z,55.4
2018-04-17T08:23:48.232Z,55.6
2018-04-17T08:24:24.219Z,55.8
2018-04-17T08:25:14.560Z,55.8
2018-04-17T08:26:04.311Z,55.9
2018-04-17T08:27:44.436Z,56.3
2018-04-17T08:28:33.475Z,56.3
2018-04-17T08:29:24.622Z,56.4
2018-04-17T08:30:29.559Z,56.7
2018-04-17T08:31:04.186Z,56.9
2018-04-17T08:31:55.274Z,56.9
2018-04-17T08:32:44.658Z,57.1
2018-04-17T08:33:34.578Z,57.3
2018-04-17T08:34:25.242Z,57.3
2018-04-17T08:35:14.540Z,57.5
2018-04-17T08:36:04.642Z,57.6
2018-04-17T08:37:45.254Z,57.9
2018-04-17T08:38:35.821Z,58
2018-04-17T08:39:25.756Z,58.1
2018-04-17T08:40:15.698Z,58.2
2018-04-17T08:41:05.226Z,58.3
2018-04-17T08:41:55.589Z,58.3
2018-04-17T08:42:46.438Z,58.4
2018-04-17T08:44:26.026Z,58.6
2018-04-17T08:45:16.087Z,58.7
2018-04-17T08:46:06.180Z,58.7
2018-04-17T08:47:28.267Z,58.7
2018-04-17T08:47:45.819Z,58.5
2018-04-17T08:48:36.021Z,58.4
2018-04-17T08:49:25.130Z,58.2
2018-04-17T08:50:16.490Z,58.2
2018-04-17T08:51:06.253Z,58.2
2018-04-17T08:51:56.331Z,58.2
2018-04-17T08:52:45.836Z,58.2
2018-04-17T08:53:36.084Z,58.2
2018-04-17T08:54:26.853Z,58.2
2018-04-17T08:55:15.813Z,58.1
2018-04-17T08:56:06.027Z,58.1
2018-04-17T08:56:56.440Z,58.2
2018-04-17T08:57:46.932Z,58.3
2018-04-17T08:58:36.575Z,58.3
2018-04-17T08:59:42.407Z,58.4
2018-04-17T09:00:17.254Z,58.4
2018-04-17T09:01:22.413Z,58.4
2018-04-17T09:04:31.985Z,58.5
2018-04-17T09:05:22.662Z,58.4
2018-04-17T09:06:12.356Z,58.3
2018-04-17T09:07:02.135Z,58.3
2018-04-17T09:07:51.720Z,58.3
2018-04-17T09:08:42.349Z,58.2
2018-04-17T09:09:32.338Z,58.1
2018-04-17T09:10:22.193Z,58
2018-04-17T09:11:13.002Z,58
2018-04-17T09:12:02.583Z,57.9
2018-04-17T09:12:51.623Z,57.9
2018-04-17T09:13:42.232Z,58.1
2018-04-17T09:14:32.271Z,58.1
2018-04-17T09:15:36.898Z,58.1
2018-04-17T09:16:13.168Z,58.2
2018-04-17T09:17:02.089Z,58.3
2018-04-17T09:17:52.429Z,58.3
2018-04-17T09:18:42.818Z,58.3
2018-04-17T09:19:33.436Z,58.3
2018-04-17T09:20:23.022Z,58.4
2018-04-17T09:21:12.709Z,58.4
2018-04-17T09:22:03.334Z,58.5
2018-04-17T09:23:43.977Z,58.6
2018-04-17T09:25:37.386Z,58.6
2018-04-17T09:26:13.847Z,58.5
2018-04-17T09:27:02.662Z,58.5
2018-04-17T09:27:53.231Z,58.5
2018-04-17T09:28:43.845Z,58.5
2018-04-17T09:29:33.905Z,58.5
2018-04-17T09:30:23.988Z,58.4
2018-04-17T09:31:13.983Z,58.4
2018-04-17T09:32:04.391Z,58.4
2018-04-17T09:32:54.476Z,58.3
2018-04-17T09:33:44.490Z,58.2
2018-04-17T09:34:34.499Z,58.1
2018-04-17T09:35:23.765Z,58.1
2018-04-17T09:36:14.677Z,58
2018-04-17T09:37:04.555Z,58.1
2018-04-17T09:37:54.481Z,58
2018-04-17T09:38:59.268Z,58
2018-04-17T09:39:34.391Z,58.1
2018-04-17T09:40:25.050Z,58.2
2018-04-17T09:41:14.881Z,58.3
2018-04-17T09:42:04.558Z,58.4
2018-04-17T09:42:54.338Z,58.4
2018-04-17T09:43:44.980Z,58.4
2018-04-17T09:44:35.220Z,58.3
2018-04-17T09:45:25.569Z,58.3
2018-04-17T09:46:14.892Z,58.3
2018-04-17T09:47:05.715Z,58.2
2018-04-17T09:47:55.309Z,58.2
2018-04-17T09:48:45.067Z,58.1
2018-04-17T09:49:35.767Z,58.1
2018-04-17T09:50:40.373Z,58.1
2018-04-17T09:51:15.789Z,58.1
2018-04-17T09:52:04.309Z,58
2018-04-17T09:52:55.984Z,58.1
2018-04-17T09:53:45.202Z,58
2018-04-17T09:54:35.859Z,58
2018-04-17T09:55:25.604Z,58
2018-04-17T09:56:15.820Z,58.1
2018-04-17T09:57:06.716Z,58.1
2018-04-17T09:58:10.479Z,58.3
2018-04-17T09:59:01.161Z,58.3
2018-04-17T09:59:35.686Z,58.3
2018-04-17T10:00:41.154Z,58.3
2018-04-17T10:01:15.692Z,58.4
2018-04-17T10:02:06.587Z,58.4
2018-04-17T10:02:55.998Z,58.4
2018-04-17T10:03:46.504Z,58.4
2018-04-17T10:04:36.866Z,58.4
2018-04-17T10:05:26.386Z,58.5
2018-04-17T10:07:06.449Z,58.7
2018-04-17T10:07:57.142Z,58.8
2018-04-17T10:08:47.247Z,58.9
2018-04-17T10:09:37.203Z,59.1
2018-04-17T10:10:26.720Z,59
2018-04-17T10:11:17.231Z,58.9
2018-04-17T10:12:07.508Z,58.9
2018-04-17T10:12:57.244Z,58.9
2018-04-17T10:13:47.026Z,58.8
2018-04-17T10:14:37.334Z,58.9
2018-04-17T10:15:27.673Z,58.9
2018-04-17T10:16:16.931Z,58.9
2018-04-17T10:17:07.008Z,58.9
2018-04-17T10:17:57.373Z,59.1
2018-04-17T10:18:47.402Z,59.2
2018-04-17T10:19:37.653Z,59.3
2018-04-17T10:20:27.657Z,59.4
2018-04-17T10:21:18.177Z,59.4
2018-04-17T10:22:07.950Z,59.4
2018-04-17T10:22:57.536Z,59.4
2018-04-17T10:23:47.815Z,59.4
2018-04-17T10:24:38.149Z,59.3
2018-04-17T10:25:28.210Z,59.3
2018-04-17T10:26:18.491Z,59.3
2018-04-17T10:27:08.350Z,59.3
2018-04-17T10:29:03.320Z,59.1
2018-04-17T10:29:38.492Z,59.1
2018-04-17T10:30:28.418Z,59.1
2018-04-17T10:32:08.109Z,59.1
2018-04-17T10:32:58.971Z,59.2
2018-04-17T10:34:26.361Z,59.1
2018-04-17T10:35:16.394Z,59.1
2018-04-17T10:36:06.765Z,59.1
2018-04-17T10:36:56.276Z,59
2018-04-17T10:37:46.306Z,59.1
2018-04-17T10:38:36.967Z,59
2018-04-17T10:39:26.258Z,58.9
2018-04-17T10:40:17.054Z,58.9
2018-04-17T10:41:06.326Z,58.9
2018-04-17T10:41:56.959Z,58.9
2018-04-17T10:42:46.780Z,58.8
2018-04-17T10:43:37.041Z,58.8
2018-04-17T10:44:27.123Z,58.8
2018-04-17T10:45:15.846Z,58.9
2018-04-17T10:46:07.054Z,58.9
2018-04-17T10:46:57.417Z,58.9
2018-04-17T10:47:46.291Z,58.9
2018-04-17T10:48:36.274Z,58.9
2018-04-17T10:49:26.464Z,58.9
2018-04-17T10:50:16.826Z,59
2018-04-17T10:51:07.381Z,58.9
2018-04-17T10:51:57.684Z,58.9
2018-04-17T10:52:47.471Z,58.9
2018-04-17T10:53:38.131Z,58.9
2018-04-17T10:54:27.605Z,59
2018-04-17T10:55:17.926Z,58.9
2018-04-17T10:56:07.725Z,58.9
2018-04-17T10:56:58.070Z,59.1
2018-04-17T10:57:47.907Z,59.1
2018-04-17T10:58:38.230Z,59.2
2018-04-17T10:59:26.860Z,59.3
2018-04-17T11:00:18.380Z,59.3
2018-04-17T11:01:08.425Z,59.4
2018-04-17T11:01:58.451Z,59.4
2018-04-17T11:02:48.228Z,59.3
2018-04-17T11:03:38.595Z,59.3
2018-04-17T11:04:28.947Z,59.3
2018-04-17T11:05:19.015Z,59.4
2018-04-17T11:06:08.801Z,59.4
2018-04-17T11:06:58.805Z,59.3
2018-04-17T11:07:49.174Z,59.3
2018-04-17T11:08:38.400Z,59.3
2018-04-17T11:09:28.804Z,59.3
2018-04-17T11:10:19.425Z,59.4
2018-04-17T11:11:09.148Z,59.4
2018-04-17T11:11:59.257Z,59.4
2018-04-17T11:12:49.577Z,59.4
2018-04-17T11:13:38.783Z,59.5
2018-04-17T11:14:29.509Z,59.7
2018-04-17T11:15:19.489Z,59.8
2018-04-17T11:16:09.845Z,59.8
2018-04-17T11:16:59.932Z,59.9
2018-04-17T11:17:49.665Z,59.9
2018-04-17T11:18:39.747Z,59.9
2018-04-17T11:19:29.887Z,59.8
2018-04-17T11:20:19.582Z,59.7
2018-04-17T11:21:09.374Z,59.6
2018-04-17T11:22:00.289Z,59.8
2018-04-17T11:22:50.350Z,59.9
2018-04-17T11:23:39.819Z,59.9
2018-04-17T11:24:30.034Z,60.1
2018-04-17T11:25:19.419Z,60.1
2018-04-17T11:26:10.653Z,60.1
2018-04-17T11:26:59.541Z,60
2018-04-17T11:27:50.446Z,60
2018-04-17T11:28:40.516Z,59.9
2018-04-17T11:29:30.291Z,59.9